sensor_id;sensor_type;location;lat;lon;timestamp;temperature;humidity
6986;DHT22;3533;51.246;6.850;2022-12-29T00:01:29;18.90;38.20
6986;DHT22;3533;51.246;6.850;2022-12-29T00:03:55;18.90;38.20
6986;DHT22;3533;51.246;6.850;2022-12-29T00:06:20;18.90;38.20
6986;DHT22;3533;51.246;6.850;2022-12-29T00:08:46;18.90;38.30
6986;DHT22;3533;51.246;6.850;2022-12-29T00:11:14;18.90;38.20
6986;DHT22;3533;51.246;6.850;2022-12-29T00:13:40;18.90;38.20
6986;DHT22;3533;51.246;6.850;2022-12-29T00:16:25;18.90;38.20
6986;DHT22;3533;51.246;6.850;2022-12-29T00:18:51;18.90;38.20
6986;DHT22;3533;51.246;6.850;2022-12-29T00:21:18;18.90;38.40
6986;DHT22;3533;51.246;6.850;2022-12-29T00:24:02;18.90;38.20
6986;DHT22;3533;51.246;6.850;2022-12-29T00:26:49;18.90;38.30
6986;DHT22;3533;51.246;6.850;2022-12-29T00:29:37;18.90;38.30
6986;DHT22;3533;51.246;6.850;2022-12-29T00:32:21;18.90;38.40
6986;DHT22;3533;51.246;6.850;2022-12-29T00:35:08;18.90;38.40
6986;DHT22;3533;51.246;6.850;2022-12-29T00:37:37;18.90;38.40
6986;DHT22;3533;51.246;6.850;2022-12-29T00:40:22;18.90;38.50
6986;DHT22;3533;51.246;6.850;2022-12-29T00:43:06;18.90;38.40
6986;DHT22;3533;51.246;6.850;2022-12-29T00:45:50;18.90;38.60
6986;DHT22;3533;51.246;6.850;2022-12-29T00:48:16;18.90;38.60
6986;DHT22;3533;51.246;6.850;2022-12-29T00:51:01;18.90;38.50
6986;DHT22;3533;51.246;6.850;2022-12-29T00:53:27;18.90;38.50
6986;DHT22;3533;51.246;6.850;2022-12-29T00:55:52;18.90;38.50
6986;DHT22;3533;51.246;6.850;2022-12-29T00:58:18;18.90;38.50
6986;DHT22;3533;51.246;6.850;2022-12-29T01:00:43;18.90;38.60
6986;DHT22;3533;51.246;6.850;2022-12-29T01:03:09;18.90;38.50
6986;DHT22;3533;51.246;6.850;2022-12-29T01:05:37;18.90;38.50
6986;DHT22;3533;51.246;6.850;2022-12-29T01:08:03;18.90;38.50
6986;DHT22;3533;51.246;6.850;2022-12-29T01:10:29;18.90;38.50
6986;DHT22;3533;51.246;6.850;2022-12-29T01:12:54;18.90;38.50
6986;DHT22;3533;51.246;6.850;2022-12-29T01:15:20;18.90;38.50
6986;DHT22;3533;51.246;6.850;2022-12-29T01:17:45;18.90;38.50
6986;DHT22;3533;51.246;6.850;2022-12-29T01:20:11;18.90;38.50
6986;DHT22;3533;51.246;6.850;2022-12-29T01:22:37;18.90;38.50
6986;DHT22;3533;51.246;6.850;2022-12-29T01:25:04;18.90;38.50
6986;DHT22;3533;51.246;6.850;2022-12-29T01:27:29;18.90;38.60
6986;DHT22;3533;51.246;6.850;2022-12-29T01:29:55;18.90;38.60
6986;DHT22;3533;51.246;6.850;2022-12-29T01:32:20;18.90;38.60
6986;DHT22;3533;51.246;6.850;2022-12-29T01:34:46;18.90;38.60
6986;DHT22;3533;51.246;6.850;2022-12-29T01:37:11;18.90;38.60
6986;DHT22;3533;51.246;6.850;2022-12-29T01:39:37;18.90;38.60
6986;DHT22;3533;51.246;6.850;2022-12-29T01:42:03;18.90;38.70
6986;DHT22;3533;51.246;6.850;2022-12-29T01:45:02;18.90;38.60
6986;DHT22;3533;51.246;6.850;2022-12-29T01:47:30;18.90;38.60
6986;DHT22;3533;51.246;6.850;2022-12-29T01:49:59;18.90;38.60
6986;DHT22;3533;51.246;6.850;2022-12-29T01:52:28;18.90;38.60
6986;DHT22;3533;51.246;6.850;2022-12-29T01:54:56;18.80;38.50
6986;DHT22;3533;51.246;6.850;2022-12-29T01:57:27;18.80;38.50
6986;DHT22;3533;51.246;6.850;2022-12-29T02:00:02;18.80;38.50
6986;DHT22;3533;51.246;6.850;2022-12-29T02:02:29;18.90;38.60
6986;DHT22;3533;51.246;6.850;2022-12-29T02:04:58;18.80;38.50
6986;DHT22;3533;51.246;6.850;2022-12-29T02:07:26;18.80;38.50
6986;DHT22;3533;51.246;6.850;2022-12-29T02:09:54;18.80;38.50
6986;DHT22;3533;51.246;6.850;2022-12-29T02:12:21;18.80;38.50
6986;DHT22;3533;51.246;6.850;2022-12-29T02:14:49;18.90;38.60
6986;DHT22;3533;51.246;6.850;2022-12-29T02:31:28;18.80;38.60
6986;DHT22;3533;51.246;6.850;2022-12-29T02:36:40;18.80;38.60
6986;DHT22;3533;51.246;6.850;2022-12-29T02:39:18;18.80;38.60
6986;DHT22;3533;51.246;6.850;2022-12-29T02:41:58;18.80;38.60
6986;DHT22;3533;51.246;6.850;2022-12-29T02:44:42;18.80;38.60
6986;DHT22;3533;51.246;6.850;2022-12-29T02:47:41;18.80;38.70
6986;DHT22;3533;51.246;6.850;2022-12-29T02:52:44;18.80;39.40
6986;DHT22;3533;51.246;6.850;2022-12-29T02:55:12;18.80;38.70
6986;DHT22;3533;51.246;6.850;2022-12-29T02:57:37;18.80;38.70
6986;DHT22;3533;51.246;6.850;2022-12-29T03:00:10;18.80;38.70
6986;DHT22;3533;51.246;6.850;2022-12-29T03:05:26;18.80;38.70
6986;DHT22;3533;51.246;6.850;2022-12-29T03:10:50;18.80;38.70
6986;DHT22;3533;51.246;6.850;2022-12-29T03:18:51;18.80;38.60
6986;DHT22;3533;51.246;6.850;2022-12-29T03:21:52;18.80;38.60
6986;DHT22;3533;51.246;6.850;2022-12-29T03:24:41;18.80;38.70
6986;DHT22;3533;51.246;6.850;2022-12-29T03:27:12;18.80;38.60
6986;DHT22;3533;51.246;6.850;2022-12-29T03:29:53;18.80;38.60
6986;DHT22;3533;51.246;6.850;2022-12-29T03:32:22;18.80;38.60
6986;DHT22;3533;51.246;6.850;2022-12-29T03:34:50;18.80;38.60
6986;DHT22;3533;51.246;6.850;2022-12-29T03:37:20;18.80;38.90
6986;DHT22;3533;51.246;6.850;2022-12-29T03:39:47;18.80;38.70
6986;DHT22;3533;51.246;6.850;2022-12-29T03:42:16;18.80;38.70
6986;DHT22;3533;51.246;6.850;2022-12-29T03:44:44;18.80;38.70
6986;DHT22;3533;51.246;6.850;2022-12-29T03:47:14;18.80;38.70
6986;DHT22;3533;51.246;6.850;2022-12-29T03:49:40;18.80;38.70
6986;DHT22;3533;51.246;6.850;2022-12-29T03:52:06;18.80;38.60
6986;DHT22;3533;51.246;6.850;2022-12-29T03:54:32;18.80;38.60
6986;DHT22;3533;51.246;6.850;2022-12-29T03:56:57;18.80;38.70
6986;DHT22;3533;51.246;6.850;2022-12-29T03:59:23;18.80;38.60
6986;DHT22;3533;51.246;6.850;2022-12-29T04:01:48;18.80;38.70
6986;DHT22;3533;51.246;6.850;2022-12-29T04:04:14;18.80;38.70
6986;DHT22;3533;51.246;6.850;2022-12-29T04:06:40;18.80;38.70
6986;DHT22;3533;51.246;6.850;2022-12-29T04:09:06;18.80;38.70
6986;DHT22;3533;51.246;6.850;2022-12-29T04:11:32;18.80;38.70
6986;DHT22;3533;51.246;6.850;2022-12-29T04:13:57;18.80;38.70
6986;DHT22;3533;51.246;6.850;2022-12-29T04:16:23;18.80;38.70
6986;DHT22;3533;51.246;6.850;2022-12-29T04:18:48;18.80;38.70
6986;DHT22;3533;51.246;6.850;2022-12-29T04:21:14;18.80;38.80
6986;DHT22;3533;51.246;6.850;2022-12-29T04:23:39;18.80;38.70
6986;DHT22;3533;51.246;6.850;2022-12-29T04:26:06;18.80;38.70
6986;DHT22;3533;51.246;6.850;2022-12-29T04:28:35;18.80;38.80
6986;DHT22;3533;51.246;6.850;2022-12-29T04:31:02;18.80;38.70
6986;DHT22;3533;51.246;6.850;2022-12-29T04:33:28;18.80;38.70
6986;DHT22;3533;51.246;6.850;2022-12-29T04:35:54;18.80;38.70
6986;DHT22;3533;51.246;6.850;2022-12-29T04:38:21;18.80;38.70
6986;DHT22;3533;51.246;6.850;2022-12-29T04:40:47;18.80;38.80
6986;DHT22;3533;51.246;6.850;2022-12-29T04:43:13;18.80;38.80
6986;DHT22;3533;51.246;6.850;2022-12-29T04:45:43;18.80;38.80
6986;DHT22;3533;51.246;6.850;2022-12-29T04:48:09;18.80;38.80
6986;DHT22;3533;51.246;6.850;2022-12-29T04:50:34;18.80;38.70
6986;DHT22;3533;51.246;6.850;2022-12-29T04:53:00;18.80;38.80
6986;DHT22;3533;51.246;6.850;2022-12-29T04:55:26;18.80;38.80
6986;DHT22;3533;51.246;6.850;2022-12-29T04:57:51;18.80;38.70
6986;DHT22;3533;51.246;6.850;2022-12-29T05:00:17;18.80;38.80
6986;DHT22;3533;51.246;6.850;2022-12-29T05:02:43;18.80;38.80
6986;DHT22;3533;51.246;6.850;2022-12-29T05:05:09;18.80;38.80
6986;DHT22;3533;51.246;6.850;2022-12-29T05:07:35;18.80;38.70
6986;DHT22;3533;51.246;6.850;2022-12-29T05:10:01;18.80;38.70
6986;DHT22;3533;51.246;6.850;2022-12-29T05:12:30;18.80;38.70
6986;DHT22;3533;51.246;6.850;2022-12-29T05:14:56;18.80;38.70
6986;DHT22;3533;51.246;6.850;2022-12-29T05:17:21;18.80;38.80
6986;DHT22;3533;51.246;6.850;2022-12-29T05:19:47;18.80;38.70
6986;DHT22;3533;51.246;6.850;2022-12-29T05:22:12;18.80;38.70
6986;DHT22;3533;51.246;6.850;2022-12-29T05:24:38;18.80;38.70
6986;DHT22;3533;51.246;6.850;2022-12-29T05:27:03;18.80;38.70
6986;DHT22;3533;51.246;6.850;2022-12-29T05:29:29;18.80;38.70
6986;DHT22;3533;51.246;6.850;2022-12-29T05:31:54;18.80;38.70
6986;DHT22;3533;51.246;6.850;2022-12-29T05:34:20;18.80;38.70
6986;DHT22;3533;51.246;6.850;2022-12-29T05:36:45;18.80;38.70
6986;DHT22;3533;51.246;6.850;2022-12-29T05:39:11;18.80;38.70
6986;DHT22;3533;51.246;6.850;2022-12-29T05:41:36;18.80;38.70
6986;DHT22;3533;51.246;6.850;2022-12-29T05:44:02;18.80;38.70
6986;DHT22;3533;51.246;6.850;2022-12-29T05:46:27;18.80;38.70
6986;DHT22;3533;51.246;6.850;2022-12-29T05:48:53;18.80;38.70
6986;DHT22;3533;51.246;6.850;2022-12-29T05:51:18;18.80;38.80
6986;DHT22;3533;51.246;6.850;2022-12-29T05:53:44;18.80;38.80
6986;DHT22;3533;51.246;6.850;2022-12-29T05:56:09;18.80;38.80
6986;DHT22;3533;51.246;6.850;2022-12-29T05:58:35;18.80;38.80
6986;DHT22;3533;51.246;6.850;2022-12-29T06:01:00;18.80;38.80
6986;DHT22;3533;51.246;6.850;2022-12-29T06:03:26;18.80;38.80
6986;DHT22;3533;51.246;6.850;2022-12-29T06:05:51;18.80;38.80
6986;DHT22;3533;51.246;6.850;2022-12-29T06:08:17;18.80;38.80
6986;DHT22;3533;51.246;6.850;2022-12-29T06:10:43;18.80;38.70
6986;DHT22;3533;51.246;6.850;2022-12-29T06:13:08;18.80;38.80
6986;DHT22;3533;51.246;6.850;2022-12-29T06:15:35;18.80;38.70
6986;DHT22;3533;51.246;6.850;2022-12-29T06:18:00;18.80;38.80
6986;DHT22;3533;51.246;6.850;2022-12-29T06:20:26;18.80;38.80
6986;DHT22;3533;51.246;6.850;2022-12-29T06:22:51;18.80;38.70
6986;DHT22;3533;51.246;6.850;2022-12-29T06:25:17;18.80;38.80
6986;DHT22;3533;51.246;6.850;2022-12-29T06:27:43;18.80;38.80
6986;DHT22;3533;51.246;6.850;2022-12-29T06:30:09;18.80;38.80
6986;DHT22;3533;51.246;6.850;2022-12-29T06:32:35;18.80;38.80
6986;DHT22;3533;51.246;6.850;2022-12-29T06:35:01;18.80;38.80
6986;DHT22;3533;51.246;6.850;2022-12-29T06:37:27;18.80;38.80
6986;DHT22;3533;51.246;6.850;2022-12-29T06:39:53;18.80;38.80
6986;DHT22;3533;51.246;6.850;2022-12-29T06:42:18;18.80;38.80
6986;DHT22;3533;51.246;6.850;2022-12-29T06:44:44;18.80;38.80
6986;DHT22;3533;51.246;6.850;2022-12-29T06:47:10;18.80;38.80
6986;DHT22;3533;51.246;6.850;2022-12-29T06:49:35;18.80;38.80
6986;DHT22;3533;51.246;6.850;2022-12-29T06:52:01;18.80;38.80
6986;DHT22;3533;51.246;6.850;2022-12-29T06:54:29;18.80;38.80
6986;DHT22;3533;51.246;6.850;2022-12-29T06:56:55;18.80;38.90
6986;DHT22;3533;51.246;6.850;2022-12-29T06:59:20;18.80;38.80
6986;DHT22;3533;51.246;6.850;2022-12-29T07:01:46;18.80;38.90
6986;DHT22;3533;51.246;6.850;2022-12-29T07:04:11;18.80;39.00
6986;DHT22;3533;51.246;6.850;2022-12-29T07:06:37;18.80;38.80
6986;DHT22;3533;51.246;6.850;2022-12-29T07:09:03;18.80;38.80
6986;DHT22;3533;51.246;6.850;2022-12-29T07:11:28;18.80;38.80
6986;DHT22;3533;51.246;6.850;2022-12-29T07:13:54;18.80;38.90
6986;DHT22;3533;51.246;6.850;2022-12-29T07:16:19;18.80;38.80
6986;DHT22;3533;51.246;6.850;2022-12-29T07:18:45;18.80;38.80
6986;DHT22;3533;51.246;6.850;2022-12-29T07:21:11;18.80;38.80
6986;DHT22;3533;51.246;6.850;2022-12-29T07:23:37;18.80;38.80
6986;DHT22;3533;51.246;6.850;2022-12-29T07:26:07;18.80;38.80
6986;DHT22;3533;51.246;6.850;2022-12-29T07:28:34;18.80;38.80
6986;DHT22;3533;51.246;6.850;2022-12-29T07:31:00;18.80;38.90
6986;DHT22;3533;51.246;6.850;2022-12-29T07:33:28;18.80;38.90
6986;DHT22;3533;51.246;6.850;2022-12-29T07:35:54;18.80;38.90
6986;DHT22;3533;51.246;6.850;2022-12-29T07:38:20;18.70;38.80
6986;DHT22;3533;51.246;6.850;2022-12-29T07:40:45;18.80;38.90
6986;DHT22;3533;51.246;6.850;2022-12-29T07:43:11;18.70;38.80
6986;DHT22;3533;51.246;6.850;2022-12-29T07:45:36;18.80;39.00
6986;DHT22;3533;51.246;6.850;2022-12-29T07:48:02;18.80;38.90
6986;DHT22;3533;51.246;6.850;2022-12-29T07:50:28;18.80;39.00
6986;DHT22;3533;51.246;6.850;2022-12-29T07:52:54;18.70;38.90
6986;DHT22;3533;51.246;6.850;2022-12-29T07:55:19;18.80;39.00
6986;DHT22;3533;51.246;6.850;2022-12-29T07:57:45;18.80;39.00
6986;DHT22;3533;51.246;6.850;2022-12-29T08:00:11;18.80;39.00
6986;DHT22;3533;51.246;6.850;2022-12-29T08:02:36;18.70;38.80
6986;DHT22;3533;51.246;6.850;2022-12-29T08:05:02;18.70;38.90
6986;DHT22;3533;51.246;6.850;2022-12-29T08:07:27;18.80;38.90
6986;DHT22;3533;51.246;6.850;2022-12-29T08:09:53;18.70;39.70
6986;DHT22;3533;51.246;6.850;2022-12-29T08:12:19;18.70;38.90
6986;DHT22;3533;51.246;6.850;2022-12-29T08:14:44;18.70;38.90
6986;DHT22;3533;51.246;6.850;2022-12-29T08:17:10;18.70;39.70
6986;DHT22;3533;51.246;6.850;2022-12-29T08:19:36;18.70;38.90
6986;DHT22;3533;51.246;6.850;2022-12-29T08:22:02;18.80;38.90
6986;DHT22;3533;51.246;6.850;2022-12-29T08:24:27;18.70;39.60
6986;DHT22;3533;51.246;6.850;2022-12-29T08:26:53;18.70;38.80
6986;DHT22;3533;51.246;6.850;2022-12-29T08:29:18;18.70;38.90
6986;DHT22;3533;51.246;6.850;2022-12-29T08:31:45;18.70;38.90
6986;DHT22;3533;51.246;6.850;2022-12-29T08:34:10;18.70;38.90
6986;DHT22;3533;51.246;6.850;2022-12-29T08:36:36;18.70;38.90
6986;DHT22;3533;51.246;6.850;2022-12-29T08:39:01;18.70;38.90
6986;DHT22;3533;51.246;6.850;2022-12-29T08:41:27;18.70;38.90
6986;DHT22;3533;51.246;6.850;2022-12-29T08:43:52;18.70;38.90
6986;DHT22;3533;51.246;6.850;2022-12-29T08:46:18;18.70;38.90
6986;DHT22;3533;51.246;6.850;2022-12-29T08:48:44;18.70;38.90
6986;DHT22;3533;51.246;6.850;2022-12-29T08:51:10;18.70;38.90
6986;DHT22;3533;51.246;6.850;2022-12-29T08:53:35;18.80;39.00
6986;DHT22;3533;51.246;6.850;2022-12-29T08:56:02;18.70;38.90
6986;DHT22;3533;51.246;6.850;2022-12-29T08:58:28;18.70;38.90
6986;DHT22;3533;51.246;6.850;2022-12-29T09:00:55;18.70;38.90
6986;DHT22;3533;51.246;6.850;2022-12-29T09:03:21;18.70;38.90
6986;DHT22;3533;51.246;6.850;2022-12-29T09:05:51;18.80;39.00
6986;DHT22;3533;51.246;6.850;2022-12-29T09:08:17;18.70;38.90
6986;DHT22;3533;51.246;6.850;2022-12-29T09:10:43;18.70;38.90
6986;DHT22;3533;51.246;6.850;2022-12-29T09:13:10;18.70;39.00
6986;DHT22;3533;51.246;6.850;2022-12-29T09:15:36;18.70;39.00
6986;DHT22;3533;51.246;6.850;2022-12-29T09:18:01;18.70;39.00
6986;DHT22;3533;51.246;6.850;2022-12-29T09:20:27;18.70;39.00
6986;DHT22;3533;51.246;6.850;2022-12-29T09:22:52;18.70;39.00
6986;DHT22;3533;51.246;6.850;2022-12-29T09:25:19;18.80;39.10
6986;DHT22;3533;51.246;6.850;2022-12-29T09:27:45;18.70;39.00
6986;DHT22;3533;51.246;6.850;2022-12-29T09:30:15;18.70;39.00
6986;DHT22;3533;51.246;6.850;2022-12-29T09:32:41;18.70;39.00
6986;DHT22;3533;51.246;6.850;2022-12-29T09:35:07;18.70;39.00
6986;DHT22;3533;51.246;6.850;2022-12-29T09:37:32;18.70;39.00
6986;DHT22;3533;51.246;6.850;2022-12-29T09:39:58;18.70;39.00
6986;DHT22;3533;51.246;6.850;2022-12-29T09:42:41;18.70;39.00
6986;DHT22;3533;51.246;6.850;2022-12-29T09:45:17;18.70;39.00
6986;DHT22;3533;51.246;6.850;2022-12-29T09:47:45;18.70;39.00
6986;DHT22;3533;51.246;6.850;2022-12-29T09:50:16;18.70;39.00
6986;DHT22;3533;51.246;6.850;2022-12-29T09:52:48;18.70;39.00
6986;DHT22;3533;51.246;6.850;2022-12-29T09:55:19;18.70;39.00
6986;DHT22;3533;51.246;6.850;2022-12-29T09:57:56;18.70;39.00
6986;DHT22;3533;51.246;6.850;2022-12-29T10:03:24;18.70;38.90
6986;DHT22;3533;51.246;6.850;2022-12-29T10:05:58;18.70;39.00
6986;DHT22;3533;51.246;6.850;2022-12-29T10:08:39;18.80;39.10
6986;DHT22;3533;51.246;6.850;2022-12-29T10:11:20;18.70;38.90
6986;DHT22;3533;51.246;6.850;2022-12-29T10:14:05;18.70;38.90
6986;DHT22;3533;51.246;6.850;2022-12-29T10:16:55;18.70;39.00
6986;DHT22;3533;51.246;6.850;2022-12-29T10:19:28;18.70;39.00
6986;DHT22;3533;51.246;6.850;2022-12-29T10:22:26;18.80;39.10
6986;DHT22;3533;51.246;6.850;2022-12-29T10:24:55;18.70;39.10
6986;DHT22;3533;51.246;6.850;2022-12-29T10:27:22;18.70;39.10
6986;DHT22;3533;51.246;6.850;2022-12-29T10:29:56;18.70;39.10
6986;DHT22;3533;51.246;6.850;2022-12-29T10:32:29;18.70;39.00
6986;DHT22;3533;51.246;6.850;2022-12-29T10:34:58;18.70;39.10
6986;DHT22;3533;51.246;6.850;2022-12-29T10:37:40;18.70;39.00
6986;DHT22;3533;51.246;6.850;2022-12-29T10:40:19;18.70;39.00
6986;DHT22;3533;51.246;6.850;2022-12-29T10:42:54;18.70;39.00
6986;DHT22;3533;51.246;6.850;2022-12-29T10:45:22;18.70;39.00
6986;DHT22;3533;51.246;6.850;2022-12-29T10:47:59;18.70;39.00
6986;DHT22;3533;51.246;6.850;2022-12-29T10:50:26;18.70;39.00
6986;DHT22;3533;51.246;6.850;2022-12-29T10:52:54;18.80;39.00
6986;DHT22;3533;51.246;6.850;2022-12-29T10:55:34;18.70;38.90
6986;DHT22;3533;51.246;6.850;2022-12-29T10:58:04;18.70;38.90
6986;DHT22;3533;51.246;6.850;2022-12-29T11:00:30;18.70;39.00
6986;DHT22;3533;51.246;6.850;2022-12-29T11:06:17;18.80;38.90
6986;DHT22;3533;51.246;6.850;2022-12-29T11:11:28;18.80;39.00
6986;DHT22;3533;51.246;6.850;2022-12-29T11:14:11;18.70;38.90
6986;DHT22;3533;51.246;6.850;2022-12-29T11:16:37;18.70;38.90
6986;DHT22;3533;51.246;6.850;2022-12-29T11:19:03;18.80;39.00
6986;DHT22;3533;51.246;6.850;2022-12-29T11:21:38;18.80;39.00
6986;DHT22;3533;51.246;6.850;2022-12-29T11:24:23;18.80;39.00
6986;DHT22;3533;51.246;6.850;2022-12-29T11:26:55;18.80;39.00
6986;DHT22;3533;51.246;6.850;2022-12-29T11:29:36;18.70;38.90
6986;DHT22;3533;51.246;6.850;2022-12-29T11:32:32;18.80;39.00
6986;DHT22;3533;51.246;6.850;2022-12-29T11:34:57;18.80;39.00
6986;DHT22;3533;51.246;6.850;2022-12-29T11:37:38;18.80;38.90
6986;DHT22;3533;51.246;6.850;2022-12-29T11:40:05;18.80;39.00
6986;DHT22;3533;51.246;6.850;2022-12-29T11:42:41;18.70;38.90
6986;DHT22;3533;51.246;6.850;2022-12-29T11:45:15;18.80;39.00
6986;DHT22;3533;51.246;6.850;2022-12-29T11:47:51;18.80;39.00
6986;DHT22;3533;51.246;6.850;2022-12-29T11:50:24;18.80;39.00
6986;DHT22;3533;51.246;6.850;2022-12-29T11:53:01;18.80;39.00
6986;DHT22;3533;51.246;6.850;2022-12-29T11:55:28;18.80;39.00
6986;DHT22;3533;51.246;6.850;2022-12-29T11:57:56;18.80;39.00
6986;DHT22;3533;51.246;6.850;2022-12-29T12:00:23;18.80;39.00
6986;DHT22;3533;51.246;6.850;2022-12-29T12:05:48;18.80;39.00
6986;DHT22;3533;51.246;6.850;2022-12-29T12:08:42;18.80;39.00
6986;DHT22;3533;51.246;6.850;2022-12-29T12:16:15;18.70;39.00
6986;DHT22;3533;51.246;6.850;2022-12-29T12:26:42;18.80;39.10
6986;DHT22;3533;51.246;6.850;2022-12-29T12:29:32;18.80;39.10
6986;DHT22;3533;51.246;6.850;2022-12-29T12:32:16;18.70;39.00
6986;DHT22;3533;51.246;6.850;2022-12-29T12:34:45;18.70;38.90
6986;DHT22;3533;51.246;6.850;2022-12-29T12:40:46;18.70;38.90
6986;DHT22;3533;51.246;6.850;2022-12-29T12:49:16;18.70;39.00
6986;DHT22;3533;51.246;6.850;2022-12-29T12:52:01;18.70;38.90
6986;DHT22;3533;51.246;6.850;2022-12-29T12:57:34;18.70;39.00
6986;DHT22;3533;51.246;6.850;2022-12-29T13:03:10;18.80;39.00
6986;DHT22;3533;51.246;6.850;2022-12-29T13:08:44;18.70;39.00
6986;DHT22;3533;51.246;6.850;2022-12-29T13:11:25;18.70;39.00
6986;DHT22;3533;51.246;6.850;2022-12-29T13:14:00;18.80;39.10
6986;DHT22;3533;51.246;6.850;2022-12-29T13:19:40;18.70;39.00
6986;DHT22;3533;51.246;6.850;2022-12-29T13:24:50;18.70;39.00
6986;DHT22;3533;51.246;6.850;2022-12-29T13:30:20;18.80;39.10
6986;DHT22;3533;51.246;6.850;2022-12-29T13:33:04;18.70;39.00
6986;DHT22;3533;51.246;6.850;2022-12-29T13:38:20;18.70;39.00
6986;DHT22;3533;51.246;6.850;2022-12-29T13:41:02;18.70;39.00
6986;DHT22;3533;51.246;6.850;2022-12-29T13:43:31;18.70;39.00
6986;DHT22;3533;51.246;6.850;2022-12-29T13:46:04;18.70;39.00
6986;DHT22;3533;51.246;6.850;2022-12-29T13:51:17;18.70;39.00
6986;DHT22;3533;51.246;6.850;2022-12-29T13:57:03;18.70;39.00
6986;DHT22;3533;51.246;6.850;2022-12-29T13:59:50;18.70;39.00
6986;DHT22;3533;51.246;6.850;2022-12-29T14:02:38;18.70;39.00
6986;DHT22;3533;51.246;6.850;2022-12-29T14:07:56;18.70;39.00
6986;DHT22;3533;51.246;6.850;2022-12-29T14:10:46;18.80;39.10
6986;DHT22;3533;51.246;6.850;2022-12-29T14:13:21;18.70;39.00
6986;DHT22;3533;51.246;6.850;2022-12-29T14:15:58;18.70;39.10
6986;DHT22;3533;51.246;6.850;2022-12-29T14:18:26;18.70;39.00
6986;DHT22;3533;51.246;6.850;2022-12-29T14:20:57;18.80;39.10
6986;DHT22;3533;51.246;6.850;2022-12-29T14:23:38;18.80;39.10
6986;DHT22;3533;51.246;6.850;2022-12-29T14:28:32;18.70;39.00
6986;DHT22;3533;51.246;6.850;2022-12-29T14:30:59;18.70;39.00
6986;DHT22;3533;51.246;6.850;2022-12-29T14:33:28;18.70;39.00
6986;DHT22;3533;51.246;6.850;2022-12-29T14:35:55;18.70;39.00
6986;DHT22;3533;51.246;6.850;2022-12-29T14:38:26;18.70;39.00
6986;DHT22;3533;51.246;6.850;2022-12-29T14:41:17;18.70;38.90
6986;DHT22;3533;51.246;6.850;2022-12-29T14:44:02;18.80;39.00
6986;DHT22;3533;51.246;6.850;2022-12-29T14:46:54;18.70;39.00
6986;DHT22;3533;51.246;6.850;2022-12-29T14:49:24;18.70;38.90
6986;DHT22;3533;51.246;6.850;2022-12-29T14:51:52;18.70;39.00
6986;DHT22;3533;51.246;6.850;2022-12-29T14:56:59;18.70;39.00
6986;DHT22;3533;51.246;6.850;2022-12-29T14:59:26;18.70;39.00
6986;DHT22;3533;51.246;6.850;2022-12-29T15:01:53;18.70;39.00
6986;DHT22;3533;51.246;6.850;2022-12-29T15:04:30;18.70;39.00
6986;DHT22;3533;51.246;6.850;2022-12-29T15:06:56;18.70;39.00
6986;DHT22;3533;51.246;6.850;2022-12-29T15:09:35;18.70;39.00
6986;DHT22;3533;51.246;6.850;2022-12-29T15:14:55;18.70;39.00
6986;DHT22;3533;51.246;6.850;2022-12-29T15:17:33;18.70;39.80
6986;DHT22;3533;51.246;6.850;2022-12-29T15:20:00;18.70;39.00
6986;DHT22;3533;51.246;6.850;2022-12-29T15:22:27;18.70;39.00
6986;DHT22;3533;51.246;6.850;2022-12-29T15:24:54;18.70;39.00
6986;DHT22;3533;51.246;6.850;2022-12-29T15:27:23;18.70;39.00
6986;DHT22;3533;51.246;6.850;2022-12-29T15:29:59;18.70;39.00
6986;DHT22;3533;51.246;6.850;2022-12-29T15:32:29;18.70;39.00
6986;DHT22;3533;51.246;6.850;2022-12-29T15:34:57;18.70;39.00
6986;DHT22;3533;51.246;6.850;2022-12-29T15:37:33;18.70;39.00
6986;DHT22;3533;51.246;6.850;2022-12-29T15:40:00;18.70;39.00
6986;DHT22;3533;51.246;6.850;2022-12-29T15:45:11;18.70;39.00
6986;DHT22;3533;51.246;6.850;2022-12-29T15:47:38;18.70;39.00
6986;DHT22;3533;51.246;6.850;2022-12-29T15:50:29;18.70;39.00
6986;DHT22;3533;51.246;6.850;2022-12-29T15:52:56;18.70;39.00
6986;DHT22;3533;51.246;6.850;2022-12-29T15:55:34;18.70;39.00
6986;DHT22;3533;51.246;6.850;2022-12-29T15:58:03;18.70;38.90
6986;DHT22;3533;51.246;6.850;2022-12-29T16:00:32;18.70;39.00
6986;DHT22;3533;51.246;6.850;2022-12-29T16:03:00;18.70;39.00
6986;DHT22;3533;51.246;6.850;2022-12-29T16:05:37;18.70;39.00
6986;DHT22;3533;51.246;6.850;2022-12-29T16:08:20;18.70;39.00
6986;DHT22;3533;51.246;6.850;2022-12-29T16:10:47;18.70;39.00
6986;DHT22;3533;51.246;6.850;2022-12-29T16:13:35;18.70;39.00
6986;DHT22;3533;51.246;6.850;2022-12-29T16:16:12;18.70;39.00
6986;DHT22;3533;51.246;6.850;2022-12-29T16:18:39;18.70;39.70
6986;DHT22;3533;51.246;6.850;2022-12-29T16:21:16;18.70;39.00
6986;DHT22;3533;51.246;6.850;2022-12-29T16:23:47;18.70;39.00
6986;DHT22;3533;51.246;6.850;2022-12-29T16:26:19;18.70;39.00
6986;DHT22;3533;51.246;6.850;2022-12-29T16:28:48;18.70;39.80
6986;DHT22;3533;51.246;6.850;2022-12-29T16:33:53;18.70;39.00
6986;DHT22;3533;51.246;6.850;2022-12-29T16:36:34;18.70;39.00
6986;DHT22;3533;51.246;6.850;2022-12-29T16:39:26;18.70;39.00
6986;DHT22;3533;51.246;6.850;2022-12-29T16:41:53;18.70;39.00
6986;DHT22;3533;51.246;6.850;2022-12-29T16:44:23;18.70;39.00
6986;DHT22;3533;51.246;6.850;2022-12-29T16:47:06;18.70;39.00
6986;DHT22;3533;51.246;6.850;2022-12-29T16:49:44;18.70;39.00
6986;DHT22;3533;51.246;6.850;2022-12-29T16:52:27;18.70;39.00
6986;DHT22;3533;51.246;6.850;2022-12-29T16:54:56;18.70;39.00
6986;DHT22;3533;51.246;6.850;2022-12-29T16:57:31;18.70;39.00
6986;DHT22;3533;51.246;6.850;2022-12-29T17:00:02;18.70;39.00
6986;DHT22;3533;51.246;6.850;2022-12-29T17:02:29;18.70;39.00
6986;DHT22;3533;51.246;6.850;2022-12-29T17:04:56;18.70;39.00
6986;DHT22;3533;51.246;6.850;2022-12-29T17:07:24;18.70;39.00
6986;DHT22;3533;51.246;6.850;2022-12-29T17:09:51;18.70;39.00
6986;DHT22;3533;51.246;6.850;2022-12-29T17:12:25;18.70;39.00
6986;DHT22;3533;51.246;6.850;2022-12-29T17:14:54;18.70;39.00
6986;DHT22;3533;51.246;6.850;2022-12-29T17:17:34;18.70;39.00
6986;DHT22;3533;51.246;6.850;2022-12-29T17:20:04;18.70;39.00
6986;DHT22;3533;51.246;6.850;2022-12-29T17:22:31;18.70;39.00
6986;DHT22;3533;51.246;6.850;2022-12-29T17:24:59;18.70;39.10
6986;DHT22;3533;51.246;6.850;2022-12-29T17:29:57;18.70;39.00
6986;DHT22;3533;51.246;6.850;2022-12-29T17:32:24;18.70;39.00
6986;DHT22;3533;51.246;6.850;2022-12-29T17:34:49;18.70;39.00
6986;DHT22;3533;51.246;6.850;2022-12-29T17:37:36;18.70;39.00
6986;DHT22;3533;51.246;6.850;2022-12-29T17:40:04;18.70;39.00
6986;DHT22;3533;51.246;6.850;2022-12-29T17:42:31;18.70;39.00
6986;DHT22;3533;51.246;6.850;2022-12-29T17:44:58;18.70;39.80
6986;DHT22;3533;51.246;6.850;2022-12-29T17:47:24;18.70;39.00
6986;DHT22;3533;51.246;6.850;2022-12-29T17:49:49;18.70;39.00
6986;DHT22;3533;51.246;6.850;2022-12-29T17:52:16;18.70;39.10
6986;DHT22;3533;51.246;6.850;2022-12-29T17:54:46;18.70;39.10
6986;DHT22;3533;51.246;6.850;2022-12-29T17:57:16;18.70;39.00
6986;DHT22;3533;51.246;6.850;2022-12-29T17:59:42;18.70;39.00
6986;DHT22;3533;51.246;6.850;2022-12-29T18:02:22;18.70;39.00
6986;DHT22;3533;51.246;6.850;2022-12-29T18:04:48;18.70;39.00
6986;DHT22;3533;51.246;6.850;2022-12-29T18:07:13;18.70;39.10
6986;DHT22;3533;51.246;6.850;2022-12-29T18:09:39;18.70;39.10
6986;DHT22;3533;51.246;6.850;2022-12-29T18:12:05;18.70;39.00